Have a Safe July 4th! 

Flight Track Log - Related Links

Times and Time Zones

All times are in EST time to prevent confusion due to time zone crossing. See the EJA396 flight status page for this flight to view local times or setup timezone preferences in your user account.

Time Position Orientation Groundspeed Altitude Reporting Facility
EST Latitude Longitude Course Direction KTS MPH feet Rate Location/Type
Sun 06:34:10 PM 41.4028 -81.8606 265° West 124 143 1,700  Level Cleveland Center
Sun 06:34:45 PM 41.4011 -81.8844 265° West 147 169 2,800 2,636 Climbing Cleveland Center
Sun 06:35:16 PM 41.4008 -81.9272 270° West 186 214 4,600 3,194 Climbing Cleveland Center
Sun 06:35:47 PM 41.4222 -81.9558 315° West 198 228 6,100 2,754 Climbing Cleveland Center
Sun 06:36:17 PM 41.4539 -81.9442 15° North 297 342 7,400 2,710 Climbing Cleveland Center
Sun 06:36:49 PM 41.4858 -81.8944 49° Northeast 287 330 8,900 2,936 Climbing Cleveland Center
Sun 06:37:51 PM 41.5517 -81.8044 46° Northeast 336 387 12,000 3,097 Climbing Cleveland Center
Sun 06:38:53 PM 41.6283 -81.7025 45° Northeast 378 435 15,300 3,145 Climbing Cleveland Center
Sun 06:39:55 PM 41.7033 -81.6019 45° Northeast 379 436 18,500 2,758 Climbing Cleveland Center
Sun 06:40:57 PM 41.7806 -81.4978 45° Northeast 385 443 21,000 2,160 Climbing Cleveland Center
Sun 06:42:00 PM 41.8447 -81.3722 56° Northeast 420 483 23,000 1,152 Climbing Cleveland Center
Sun 06:43:02 PM 41.8736 -81.1981 77° East 471 542 23,400 968 Climbing Cleveland Center
Sun 06:44:04 PM 41.9022 -81.0194 78° East 483 556 25,000 1,694 Climbing Cleveland Center
Sun 06:45:06 PM 41.9372 -80.8008 78° East 506 582 26,900 1,694 Climbing Cleveland Center
Sun 06:46:08 PM 41.9897 -80.6183 69° East 518 596 28,500 1,548 Climbing Cleveland Center
Sun 06:47:10 PM 42.0442 -80.4383 68° East 516 594 30,100 1,548 Climbing Cleveland Center
Sun 06:48:12 PM 42.1003 -80.2583 67° East 518 596 31,700 1,548 Climbing Cleveland Center
Sun 06:49:14 PM 42.1583 -80.0808 66° East 513 590 33,300 1,597 Climbing Cleveland Center
Sun 06:50:16 PM 42.2253 -79.8819 66° East 509 586 35,000 823 Climbing Cleveland Center
Sun 06:51:18 PM 42.2808 -79.7042 67° East 515 593 35,000  Level Cleveland Center
Sun 06:52:20 PM 42.3317 -79.5167 70° East 531 611 35,000  Level Cleveland Center
Sun 06:53:22 PM 42.3533 -79.3164 82° East 538 619 35,000  Level Cleveland Center
Sun 06:54:25 PM 42.3731 -79.1158 82° East 540 621 35,000  Level Cleveland Center
Sun 06:55:27 PM 42.3906 -78.9189 83° East 530 610 35,000  Level Cleveland Center
Sun 06:56:29 PM 42.4089 -78.7161 83° East 523 602 35,000  Level Cleveland Center
Sun 06:57:31 PM 42.4294 -78.4839 83° East 519 597 35,000  Level Cleveland Center
Sun 06:58:33 PM 42.4469 -78.2911 83° East 520 598 35,000  Level Cleveland Center
Sun 06:59:35 PM 42.4633 -78.0964 83° East 522 601 35,000  Level Cleveland Center
Sun 07:00:37 PM 42.4800 -77.9019 83° East 523 602 35,000  Level Cleveland Center
Sun 07:01:39 PM 42.4972 -77.7028 83° East 528 608 35,000  Level Cleveland Center
Sun 07:02:41 PM 42.5133 -77.5064 84° East 527 606 35,000  Level Cleveland Center
Sun 07:03:43 PM 42.5294 -77.2883 84° East 521 600 35,000  Level Cleveland Center
Sun 07:04:45 PM 42.5450 -77.0933 84° East 524 603 35,000  Level Cleveland Center
Sun 07:05:47 PM 42.5600 -76.8961 84° East 527 606 35,000  Level Cleveland Center
Sun 07:06:48 PM 42.5744 -76.6997 84° East 526 605 35,000  Level Boston Center
Sun 07:07:49 PM 42.5883 -76.5036 84° East 525 604 35,000  Level Boston Center
Sun 07:08:51 PM 42.6056 -76.2706 84° East 519 597 35,000  Level Boston Center
Sun 07:09:51 PM 42.6169 -76.1017 85° East 518 596 35,000  Level Boston Center
Sun 07:10:54 PM 42.6300 -75.9092 85° East 514 592 35,000  Level Boston Center
Sun 07:11:55 PM 42.6453 -75.6761 85° East 521 600 35,000  Level Boston Center
Sun 07:12:55 PM 42.6572 -75.4761 85° East 534 615 35,000  Level Boston Center
Sun 07:13:56 PM 42.6697 -75.2756 85° East 539 620 35,000  Level Boston Center
Sun 07:14:57 PM 42.6806 -75.0753 86° East 539 620 35,000  Level Boston Center
Sun 07:15:58 PM 42.6917 -74.8783 86° East 530 610 35,000  Level Boston Center
Sun 07:17:01 PM 42.7044 -74.6789 85° East 533 613 35,000 -194 Level Boston Center
Sun 07:18:02 PM 42.7150 -74.4908 86° East 503 579 34,600 -1,967 Descending Boston Center
Sun 07:19:03 PM 42.7247 -74.3047 86° East 494 568 31,000 -1,820 Descending Boston Center
Sun 07:20:04 PM 42.7350 -74.0897 86° East 480 552 30,900 -793 Descending Boston Center
Sun 07:21:04 PM 42.7408 -73.9350 87° East 472 543 29,400 -919 Descending Boston Center
Sun 07:22:08 PM 42.7425 -73.7608 89° East 461 531 29,000 -194 Descending Boston Center
Sun 07:23:08 PM 42.7258 -73.5958 98° East 443 510 29,000  Level Boston Center
Sun 07:24:09 PM 42.7078 -73.4217 98° East 461 531 29,000  Level Boston Center
Sun 07:25:09 PM 42.6842 -73.2053 98° East 480 552 29,000 -541 Level Boston Center
Sun 07:26:11 PM 42.6642 -73.0283 99° East 471 542 27,900 -1,770 Descending Boston Center
Sun 07:27:11 PM 42.6464 -72.8625 98° East 445 512 25,400 -2,479 Descending Boston Center
Sun 07:28:12 PM 42.6483 -72.6983 89° East 448 516 22,900 -2,016 Descending Boston Center
Sun 07:29:16 PM 42.7250 -72.5772 49° Northeast 406 467 21,200 -1,392 Descending Boston Center
Sun 07:30:17 PM 42.7725 -72.4450 64° Northeast 406 467 20,000 -1,289 Descending Boston Center
Sun 07:31:17 PM 42.7433 -72.3117 107° East 382 440 18,600 -1,339 Descending Boston Center
Sun 07:32:18 PM 42.7006 -72.1797 114° Southeast 364 419 17,300 -1,388 Descending Boston Center
Sun 07:33:18 PM 42.6550 -72.0483 115° Southeast 358 412 15,800 -1,355 Descending Boston Center
Sun 07:34:22 PM 42.6144 -71.9283 115° Southeast 354 407 14,500 -1,248 Descending Boston Center
Sun 07:35:23 PM 42.5742 -71.8103 115° Southeast 348 400 13,200 -1,289 Descending Boston Center
Sun 07:36:23 PM 42.5342 -71.6939 115° Southeast 343 395 11,900 -1,041 Descending Boston Center
Sun 07:37:24 PM 42.5022 -71.5733 110° East 319 367 11,100 -390 Descending Boston Center
Sun 07:38:26 PM 42.4922 -71.4689 97° East 285 328 11,100 -63 Level Boston Center
Sun 07:38:59 PM 42.4833 -71.4000 100° East 285 328 11,000 -323 Descending KA90
Sun 07:39:59 PM 42.4833 -71.2833 90° East 301 346 10,600 -945 Descending KA90
Sun 07:41:06 PM 42.4667 -71.1667 101° East 284 327 9,000 -1,486 Descending KA90
Sun 07:41:48 PM 42.4500 -71.1000 109° East 271 312 7,900 -1,118 Descending KA90
Sun 07:42:48 PM 42.4500 -71.0000 90° East 253 291 7,100 -400 Descending KA90
Sun 07:43:48 PM 42.4500 -70.9167 90° East 240 276 7,100 -381 Level KA90
Sun 07:44:54 PM 42.4667 -70.8167 77° East 245 282 6,300 -635 Descending KA90
Sun 07:45:32 PM 42.4728 -70.7678 80° East 244 281 6,000 -242 Descending Boston Center
Sun 07:46:33 PM 42.4858 -70.6831 78° East 238 274 5,900 -624 Descending Boston Center
Sun 07:47:37 PM 42.4989 -70.6028 78° East 225 259 4,700 -919 Descending Boston Center
Sun 07:48:37 PM 42.4814 -70.5372 110° East 230 265 4,000 -350 Descending Boston Center
Sun 07:49:37 PM 42.4372 -70.5547 196° South 197 227 4,000  Level Boston Center
Sun 07:50:39 PM 42.4256 -70.6247 257° West 169 194 4,000 -484 Level Boston Center
Sun 07:51:41 PM 42.4175 -70.6792 259° West 157 181 3,000 -492 Descending Boston Center
Sun 07:52:41 PM 42.4075 -70.7311 255° West 150 173 3,000  Level Boston Center
Sun 07:53:42 PM 42.3989 -70.7817 257° West 144 166 3,000 -293 Level Boston Center
Sun 07:54:44 PM 42.3889 -70.8356 256° West 140 161 2,400 -689 Descending Boston Center
Sun 07:55:44 PM 42.3797 -70.8875 257° West 142 163 1,600 -650 Descending Boston Center
Sun 07:56:44 PM 42.3719 -70.9275 255° West 115 132 1,100 -550 Descending Boston Center
Sun 07:57:44 PM 42.3664 -70.9594 257° West 98 113 500 -387 Descending Boston Center
Sun 07:58:48 PM 42.3608 -71.0053 261° West 100 115 300 -188 Descending Boston Center

Login

Don't have an account? Register now (free) for customized features, flight alerts, and more!